Terminal Aerodrome Forecast
Issued by NWS

Home | Current Version | Previous Version | Text Only | Print | Product List | Glossary On
Versions: 1 2 3 4 5 6 7 8 9 10 11 12 13 14 15
000
FTUS45 KTFX 021137
TAFCTB
TAF
KCTB 021137Z 0212/0312 VRB06KT P6SM BKN180
     FM021800 23015G30KT P6SM BKN180
     FM022100 24025G38KT P6SM BKN180
     FM030300 28010KT P6SM SCT150 OVC180
     FM030800 28010KT P6SM -SHRA OVC060=

USA.gov is the U.S. government's official web portal to all federal, state and local government web resources and services.